Time;durP1;ratioP1;P1;durP2;ratioP2;P2;SDS_P1;SDS_P2;PMS_P1;PMS_P2;Temp;Humidity;BMP_temperature;BMP_pressure;BME280_temperature;BME280_humidity;BME280_pressure;Samples;Min_cycle;Max_cycle;Signal;HPM_P1;HPM_P2
2021/03/21 00:01:06;;;;;;;17.27;8.30;;;7.50;99.90;;;;;;5042384;28;20489;-90
2021/03/21 00:03:32;;;;;;;24.35;11.00;;;7.50;99.90;;;;;;5043865;28;20041;-91
2021/03/21 00:05:58;;;;;;;16.67;10.10;;;7.40;99.90;;;;;;5061091;28;20047;-90
2021/03/21 00:08:27;;;;;;;20.80;10.38;;;7.30;99.90;;;;;;5042965;28;20073;-92
2021/03/21 00:10:56;;;;;;;20.73;10.30;;;7.40;99.90;;;;;;5042891;28;20533;-92
2021/03/21 00:13:23;;;;;;;19.65;10.73;;;7.40;99.90;;;;;;5044030;28;20033;-90
2021/03/21 00:15:50;;;;;;;24.38;10.15;;;7.40;99.90;;;;;;5061616;28;20540;-90
2021/03/21 00:18:17;;;;;;;19.42;9.82;;;7.50;99.90;;;;;;5062664;28;20050;-90
2021/03/21 00:20:43;;;;;;;26.60;12.82;;;7.50;99.90;;;;;;5051252;28;20048;-90
2021/03/21 00:23:09;;;;;;;21.38;10.27;;;7.60;99.90;;;;;;5015288;28;20051;-90
2021/03/21 00:25:36;;;;;;;20.55;11.25;;;7.60;99.90;;;;;;5040709;28;20420;-91
2021/03/21 00:28:09;;;;;;;19.63;8.98;;;7.50;99.90;;;;;;5025786;28;20057;-92
2021/03/21 00:30:40;;;;;;;24.52;10.98;;;7.50;99.90;;;;;;5059073;28;20047;-91
2021/03/21 00:33:08;;;;;;;23.02;11.20;;;7.40;99.90;;;;;;5042665;28;20044;-90
2021/03/21 00:35:35;;;;;;;24.05;9.75;;;7.40;99.90;;;;;;5042631;28;20040;-91
2021/03/21 00:38:06;;;;;;;26.30;10.73;;;7.40;99.90;;;;;;5040699;28;20131;-90
2021/03/21 00:40:33;;;;;;;25.98;10.70;;;7.50;99.90;;;;;;5043904;28;20051;-90
2021/03/21 00:42:59;;;;;;;18.50;10.50;;;7.50;99.90;;;;;;5029638;28;20037;-90
2021/03/21 00:45:27;;;;;;;22.95;11.35;;;7.50;99.90;;;;;;5039195;28;20098;-90
2021/03/21 00:47:54;;;;;;;30.27;13.27;;;7.40;99.90;;;;;;5047491;28;20075;-90
2021/03/21 00:50:27;;;;;;;25.05;12.57;;;7.50;99.90;;;;;;5067821;28;20075;-89
2021/03/21 00:52:52;;;;;;;;;;;7.40;99.90;;;;;;5034813;28;20033;-92
2021/03/21 00:55:18;;;;;;;31.02;13.90;;;7.30;99.90;;;;;;5058410;28;19966;-90
2021/03/21 00:57:44;;;;;;;30.58;14.15;;;7.30;99.90;;;;;;5033645;28;20049;-89
2021/03/21 01:00:28;;;;;;;30.73;12.57;;;7.20;99.90;;;;;;5055600;28;20060;-90
2021/03/21 01:02:54;;;;;;;24.52;12.57;;;7.30;99.90;;;;;;5046623;28;20045;-89
2021/03/21 01:05:28;;;;;;;34.63;14.15;;;7.30;99.90;;;;;;5025288;28;20064;-90
2021/03/21 01:07:55;;;;;;;34.33;13.80;;;7.20;99.90;;;;;;5057189;28;20048;-91
2021/03/21 01:10:25;;;;;;;35.10;14.27;;;7.20;99.90;;;;;;5029490;28;20051;-90
2021/03/21 01:12:52;;;;;;;28.60;13.98;;;7.20;99.90;;;;;;5058075;28;20532;-89
2021/03/21 01:15:18;;;;;;;26.67;12.73;;;7.20;99.90;;;;;;5044121;28;20497;-90
2021/03/21 01:17:44;;;;;;;26.52;12.63;;;7.20;99.90;;;;;;5033376;28;20041;-89
2021/03/21 01:20:11;;;;;;;27.50;12.25;;;7.10;99.90;;;;;;5056466;28;20043;-89
2021/03/21 01:22:36;;;;;;;29.10;13.60;;;7.10;99.90;;;;;;5036942;28;20079;-91
2021/03/21 01:25:04;;;;;;;28.48;12.45;;;7.10;99.90;;;;;;5041782;28;20079;-91
2021/03/21 01:27:30;;;;;;;25.40;10.27;;;7.10;99.90;;;;;;5037530;28;20367;-89
2021/03/21 01:29:56;;;;;;;23.00;10.90;;;7.10;99.90;;;;;;5029492;28;20053;-89
2021/03/21 01:32:21;;;;;;;23.60;10.60;;;7.10;99.90;;;;;;5037234;28;20151;-90
2021/03/21 01:34:47;;;;;;;25.85;10.15;;;7.10;99.90;;;;;;5052739;28;20144;-89
2021/03/21 01:37:12;;;;;;;28.42;11.07;;;7.10;99.90;;;;;;5054805;28;20052;-91
2021/03/21 01:39:38;;;;;;;24.73;10.27;;;7.10;99.90;;;;;;5046738;28;20450;-91
2021/03/21 01:42:10;;;;;;;23.08;8.93;;;7.20;99.90;;;;;;5039422;28;20398;-90
2021/03/21 01:44:37;;;;;;;23.52;8.77;;;7.10;99.90;;;;;;5046589;28;20041;-91
2021/03/21 01:47:24;;;;;;;30.83;9.50;;;7.10;99.90;;;;;;5046210;28;20454;-90
2021/03/21 01:49:50;;;;;;;26.83;8.60;;;7.10;99.90;;;;;;5056106;28;20489;-90
2021/03/21 01:52:35;;;;;;;20.08;8.10;;;7.10;99.90;;;;;;5038030;28;20542;-91
2021/03/21 01:55:04;;;;;;;21.60;7.63;;;7.20;99.90;;;;;;5038534;28;20409;-90
2021/03/21 01:57:30;;;;;;;20.42;8.80;;;7.10;99.90;;;;;;5050013;28;20072;-91
2021/03/21 01:59:56;;;;;;;24.90;9.25;;;7.10;99.90;;;;;;5029006;28;20122;-91
2021/03/21 02:02:22;;;;;;;28.33;10.15;;;7.10;99.90;;;;;;5028303;28;20041;-89
2021/03/21 02:04:48;;;;;;;20.40;8.05;;;7.10;99.90;;;;;;5012099;28;20052;-92
2021/03/21 02:07:46;;;;;;;22.15;10.10;;;7.10;99.90;;;;;;5053084;28;20049;-89
2021/03/21 02:10:35;;;;;;;23.33;8.20;;;7.10;99.90;;;;;;5071474;28;20508;-91
2021/03/21 02:13:09;;;;;;;19.67;8.38;;;7.10;99.90;;;;;;5074468;28;20478;-91
2021/03/21 02:15:48;;;;;;;21.73;7.45;;;7.10;99.90;;;;;;5063563;28;20434;-90
2021/03/21 02:18:28;;;;;;;16.40;7.10;;;7.10;99.90;;;;;;5062695;28;20178;-90
2021/03/21 02:21:17;;;;;;;18.15;6.22;;;7.10;99.90;;;;;;5065068;28;20136;-90
2021/03/21 02:23:58;;;;;;;18.52;5.47;;;7.10;99.90;;;;;;5047685;28;20037;-90
2021/03/21 02:27:04;;;;;;;20.30;5.35;;;7.20;99.90;;;;;;5038737;28;20107;-90
2021/03/21 02:29:42;;;;;;;15.20;4.72;;;7.20;99.90;;;;;;5041097;28;20049;-90
2021/03/21 02:32:16;;;;;;;22.65;5.65;;;7.20;99.90;;;;;;5044199;28;20044;-90
2021/03/21 02:34:56;;;;;;;15.00;4.28;;;7.30;99.90;;;;;;5056761;28;20466;-91
2021/03/21 02:37:32;;;;;;;17.63;6.10;;;7.20;99.90;;;;;;5049661;28;20045;-90
2021/03/21 02:40:09;;;;;;;11.43;3.58;;;7.20;99.90;;;;;;5048397;28;20123;-92
2021/03/21 02:42:42;;;;;;;13.90;3.65;;;7.30;99.90;;;;;;5045424;28;20128;-91
2021/03/21 02:45:09;;;;;;;25.20;3.85;;;7.30;99.90;;;;;;5050407;28;20044;-90
2021/03/21 02:47:35;;;;;;;14.50;3.72;;;7.30;99.90;;;;;;5065080;28;20110;-91
2021/03/21 02:50:11;;;;;;;15.82;3.17;;;7.30;99.90;;;;;;5063879;28;20493;-91
2021/03/21 02:52:48;;;;;;;13.15;3.95;;;7.20;99.90;;;;;;5045634;28;20069;-90
2021/03/21 02:55:28;;;;;;;19.33;4.03;;;7.20;99.90;;;;;;5025668;28;20079;-91
2021/03/21 02:58:15;;;;;;;20.10;3.55;;;7.20;99.90;;;;;;5035220;28;20344;-91
2021/03/21 03:00:55;;;;;;;20.15;4.63;;;7.30;99.90;;;;;;5063593;28;20036;-91
2021/03/21 03:03:22;;;;;;;19.75;3.35;;;7.20;99.90;;;;;;5045858;28;20406;-91
2021/03/21 03:05:52;;;;;;;25.60;4.30;;;7.20;99.90;;;;;;5046408;28;20431;-91
2021/03/21 03:08:29;;;;;;;20.80;3.58;;;7.10;99.90;;;;;;5055931;28;20045;-91
2021/03/21 03:11:03;;;;;;;22.02;4.20;;;7.10;99.90;;;;;;5042560;28;20333;-89
2021/03/21 03:13:39;;;;;;;20.45;4.55;;;7.00;99.90;;;;;;5052173;28;20537;-91
2021/03/21 03:16:25;;;;;;;37.17;7.70;;;6.90;99.90;;;;;;5059036;28;20036;-90
2021/03/21 03:19:05;;;;;;;33.17;5.30;;;6.90;99.90;;;;;;5041521;28;20069;-91
2021/03/21 03:21:57;;;;;;;38.83;4.82;;;6.90;99.90;;;;;;5027049;28;20095;-89
2021/03/21 03:24:34;;;;;;;30.70;5.82;;;6.90;99.90;;;;;;5060882;28;20446;-91
2021/03/21 03:27:34;;;;;;;36.22;5.13;;;6.90;99.90;;;;;;5058385;28;20029;-91
2021/03/21 03:30:10;;;;;;;42.08;4.20;;;6.90;99.90;;;;;;5047453;28;20053;-91
2021/03/21 03:32:36;;;;;;;31.85;5.10;;;7.00;99.90;;;;;;5055264;28;20482;-91
2021/03/21 03:35:07;;;;;;;36.80;5.25;;;6.90;99.90;;;;;;5042726;28;20095;-91
2021/03/21 03:37:33;;;;;;;33.58;7.43;;;6.90;99.90;;;;;;5051384;28;20500;-90
2021/03/21 03:39:58;;;;;;;31.15;4.82;;;6.90;99.90;;;;;;5039443;28;20045;-90
2021/03/21 03:42:30;;;;;;;25.85;5.03;;;6.90;99.90;;;;;;5027196;28;20032;-90
2021/03/21 03:45:09;;;;;;;25.35;3.88;;;6.90;99.90;;;;;;5047940;28;20410;-89
2021/03/21 03:47:48;;;;;;;24.45;4.68;;;6.90;99.90;;;;;;5054200;28;20486;-90
2021/03/21 03:50:39;;;;;;;18.42;3.97;;;7.00;99.90;;;;;;5044318;28;20413;-91
2021/03/21 03:53:32;;;;;;;21.33;3.92;;;7.00;99.90;;;;;;5053050;28;20117;-90
2021/03/21 03:56:06;;;;;;;25.38;5.18;;;6.90;99.90;;;;;;5023991;28;20054;-92
2021/03/21 03:59:02;;;;;;;26.67;2.83;;;6.80;99.90;;;;;;5063868;28;20051;-89
2021/03/21 04:01:59;;;;;;;20.17;5.38;;;6.80;99.90;;;;;;5064382;28;20049;-91
2021/03/21 04:04:36;;;;;;;19.70;3.38;;;6.70;99.90;;;;;;5063252;28;20044;-92
2021/03/21 04:07:10;;;;;;;24.92;3.08;;;6.70;99.90;;;;;;5044689;28;20102;-91
2021/03/21 04:09:53;;;;;;;21.83;3.60;;;6.70;99.90;;;;;;5059765;28;20042;-91
2021/03/21 04:12:29;;;;;;;15.82;2.85;;;6.70;99.90;;;;;;5041933;28;20050;-91
2021/03/21 04:15:06;;;;;;;20.13;3.28;;;6.80;99.90;;;;;;5042666;28;20068;-91
2021/03/21 04:17:39;;;;;;;14.55;3.00;;;6.70;99.90;;;;;;5030998;28;20045;-90
2021/03/21 04:20:07;;;;;;;;;;;6.70;99.90;;;;;;5055765;28;20033;-90
2021/03/21 04:22:47;;;;;;;27.77;3.95;;;6.80;99.90;;;;;;5032000;28;20003;-89
2021/03/21 04:25:25;;;;;;;20.85;3.25;;;6.80;99.90;;;;;;5038529;28;20375;-91
2021/03/21 04:28:01;;;;;;;16.15;2.90;;;6.70;99.90;;;;;;5060407;28;20040;-90
2021/03/21 04:30:31;;;;;;;20.33;3.03;;;6.70;99.90;;;;;;5057185;28;20167;-91
2021/03/21 04:32:59;;;;;;;24.65;3.63;;;6.80;99.90;;;;;;5052536;28;20045;-91
2021/03/21 04:35:24;;;;;;;21.70;3.72;;;6.80;99.90;;;;;;5060073;28;20079;-91
2021/03/21 04:37:57;;;;;;;27.92;3.97;;;6.80;99.90;;;;;;5053815;28;20308;-91
2021/03/21 04:40:23;;;;;;;20.83;4.07;;;6.80;99.90;;;;;;5052531;28;20040;-90
2021/03/21 04:42:54;;;;;;;18.98;3.22;;;6.90;99.90;;;;;;5061039;28;20119;-89
2021/03/21 04:45:27;;;;;;;13.73;2.67;;;6.90;99.90;;;;;;5055924;28;20137;-89
2021/03/21 04:48:00;;;;;;;23.17;3.67;;;6.80;99.90;;;;;;5074342;28;20045;-91
2021/03/21 04:50:27;;;;;;;20.55;3.92;;;6.90;99.90;;;;;;5067606;28;20061;-90
2021/03/21 04:53:23;;;;;;;17.83;3.78;;;6.90;99.90;;;;;;5058257;28;20048;-90
2021/03/21 04:55:57;;;;;;;29.23;4.20;;;6.80;99.90;;;;;;5046220;28;20041;-90
2021/03/21 04:58:37;;;;;;;24.63;4.32;;;6.80;99.90;;;;;;5057333;28;20041;-92
2021/03/21 05:01:27;;;;;;;25.23;4.57;;;6.80;99.90;;;;;;5064654;28;20033;-91
2021/03/21 05:03:58;;;;;;;24.60;4.72;;;6.80;99.90;;;;;;5044040;28;20052;-92
2021/03/21 05:07:03;;;;;;;23.98;3.92;;;6.90;99.90;;;;;;5050189;28;20041;-89
2021/03/21 05:09:35;;;;;;;26.77;4.53;;;6.90;99.90;;;;;;5023331;28;20176;-91
2021/03/21 05:12:11;;;;;;;23.13;4.30;;;6.80;99.90;;;;;;5030377;28;20060;-90
2021/03/21 05:14:42;;;;;;;30.88;4.07;;;6.80;99.90;;;;;;5063444;28;20474;-90
2021/03/21 05:17:15;;;;;;;25.23;4.18;;;6.80;99.90;;;;;;5030772;28;20037;-90
2021/03/21 05:19:57;;;;;;;28.83;4.45;;;6.80;99.90;;;;;;5062356;28;20371;-90
2021/03/21 05:22:34;;;;;;;39.70;5.40;;;6.80;99.90;;;;;;5030733;28;20106;-90
2021/03/21 05:25:18;;;;;;;38.50;5.07;;;6.80;99.90;;;;;;5032120;28;20336;-91
2021/03/21 05:27:47;;;;;;;34.85;5.30;;;6.90;99.90;;;;;;5058911;28;20044;-90
2021/03/21 05:30:15;;;;;;;26.67;4.88;;;6.90;99.90;;;;;;5034011;28;20048;-92
2021/03/21 05:32:41;;;;;;;28.58;6.00;;;6.90;99.90;;;;;;5065434;28;20454;-91
2021/03/21 05:35:08;;;;;;;41.03;8.18;;;6.90;99.90;;;;;;5064966;28;20508;-91
2021/03/21 05:38:16;;;;;;;38.78;5.63;;;6.80;99.90;;;;;;5041825;28;20402;-90
2021/03/21 05:41:26;;;;;;;39.17;5.97;;;6.70;99.90;;;;;;5054036;28;20051;-91
2021/03/21 05:43:55;;;;;;;40.00;6.80;;;6.80;99.90;;;;;;5047606;28;20040;-91
2021/03/21 05:46:39;;;;;;;31.90;5.47;;;6.70;99.90;;;;;;5057820;28;20046;-91
2021/03/21 05:49:42;;;;;;;45.65;7.25;;;6.70;99.90;;;;;;5064149;28;20044;-90
2021/03/21 05:52:46;;;;;;;29.67;5.88;;;6.70;99.90;;;;;;5047200;28;20073;-90
2021/03/21 05:55:27;;;;;;;37.97;6.43;;;6.60;99.90;;;;;;5022734;28;20465;-91
2021/03/21 05:58:14;;;;;;;41.60;6.53;;;6.60;99.90;;;;;;5000783;28;20363;-90
2021/03/21 06:01:07;;;;;;;34.63;4.70;;;6.60;99.90;;;;;;5044194;28;20044;-91
2021/03/21 06:04:11;;;;;;;36.30;5.93;;;6.60;99.90;;;;;;5053273;28;20131;-91
2021/03/21 06:06:54;;;;;;;36.25;6.30;;;6.60;99.90;;;;;;5075832;28;20078;-89
2021/03/21 06:09:44;;;;;;;44.92;7.47;;;6.70;99.90;;;;;;5057005;28;20445;-90
2021/03/21 06:12:31;;;;;;;41.42;7.10;;;6.60;99.90;;;;;;5057325;28;20486;-89
2021/03/21 06:15:04;;;;;;;33.45;7.53;;;6.70;99.90;;;;;;5065546;28;20128;-91
2021/03/21 06:18:07;;;;;;;37.92;6.13;;;6.70;99.90;;;;;;5060046;28;20397;-90
2021/03/21 06:21:17;;;;;;;36.42;6.60;;;6.60;99.90;;;;;;5045705;28;20049;-90
2021/03/21 06:24:15;;;;;;;50.30;7.88;;;6.60;99.90;;;;;;5044923;28;20071;-91
2021/03/21 06:26:55;;;;;;;41.30;6.93;;;6.50;99.90;;;;;;5029509;28;20067;-91
2021/03/21 06:30:05;;;;;;;38.45;7.40;;;6.50;99.90;;;;;;5027600;28;20048;-91
2021/03/21 06:32:44;;;;;;;49.00;8.48;;;6.50;99.90;;;;;;5054456;28;20563;-91
2021/03/21 06:35:45;;;;;;;44.40;8.13;;;6.40;99.90;;;;;;5059385;28;20127;-91
2021/03/21 06:38:37;;;;;;;45.63;7.80;;;6.40;99.90;;;;;;4996622;28;20068;-91
2021/03/21 06:41:16;;;;;;;46.78;8.32;;;6.50;99.90;;;;;;5052803;28;20149;-91
2021/03/21 06:44:10;;;;;;;50.00;9.30;;;6.50;99.90;;;;;;5045483;28;20322;-91
2021/03/21 06:46:50;;;;;;;51.65;8.30;;;6.40;99.90;;;;;;5036090;28;20044;-92
2021/03/21 06:49:37;;;;;;;51.60;7.72;;;6.40;99.90;;;;;;5064565;28;20481;-91
2021/03/21 06:52:41;;;;;;;48.42;8.35;;;6.30;99.90;;;;;;5038856;28;20128;-90
2021/03/21 06:55:16;;;;;;;44.47;8.52;;;6.40;99.90;;;;;;5039722;28;20036;-91
2021/03/21 06:58:14;;;;;;;57.85;10.55;;;6.40;99.90;;;;;;5027845;28;20065;-92
2021/03/21 07:00:56;;;;;;;43.10;8.20;;;6.40;99.90;;;;;;4959802;28;20373;-91
2021/03/21 07:03:21;;;;;;;46.00;8.20;;;6.40;99.90;;;;;;5023615;28;20091;-90
2021/03/21 07:06:25;;;;;;;49.30;8.57;;;6.40;99.90;;;;;;5042983;28;20037;-93
2021/03/21 07:09:06;;;;;;;47.47;7.38;;;6.50;99.90;;;;;;5007051;28;20472;-91
2021/03/21 07:11:57;;;;;;;39.33;8.13;;;6.40;99.90;;;;;;5030175;28;20051;-89
2021/03/21 07:14:47;;;;;;;46.35;7.68;;;6.40;99.90;;;;;;5026431;28;20040;-91
2021/03/21 07:17:54;;;;;;;45.00;8.27;;;6.40;99.90;;;;;;5043601;28;20076;-92
2021/03/21 07:21:06;;;;;;;44.83;7.53;;;6.50;99.90;;;;;;5024388;28;20041;-92
2021/03/21 07:24:18;;;;;;;44.50;8.00;;;6.60;99.90;;;;;;5038520;28;20040;-94
2021/03/21 07:26:56;;;;;;;41.72;8.07;;;6.60;99.90;;;;;;5070396;28;20036;-94
2021/03/21 07:29:36;;;;;;;41.85;7.95;;;6.70;99.90;;;;;;5052092;28;20052;-92
2021/03/21 07:32:29;;;;;;;42.45;8.00;;;6.70;99.90;;;;;;5007897;28;20084;-92
2021/03/21 07:35:13;;;;;;;46.45;6.53;;;6.70;99.90;;;;;;5039411;28;20041;-83
2021/03/21 07:37:59;;;;;;;43.80;6.97;;;6.70;99.90;;;;;;5042249;28;20052;-83
2021/03/21 07:40:41;;;;;;;45.47;8.18;;;6.60;99.90;;;;;;5042803;28;20040;-83
2021/03/21 07:43:40;;;;;;;42.17;7.15;;;6.70;99.90;;;;;;5036083;28;20190;-85
2021/03/21 07:46:35;;;;;;;41.80;8.35;;;6.70;99.90;;;;;;5025465;28;20056;-84
2021/03/21 07:49:04;;;;;;;50.30;7.82;;;6.80;99.90;;;;;;5025183;28;20053;-85
2021/03/21 07:51:42;;;;;;;30.75;6.47;;;6.70;99.90;;;;;;5041205;28;20053;-95
2021/03/21 07:54:26;;;;;;;52.53;8.05;;;6.80;99.90;;;;;;5042281;28;20243;-94
2021/03/21 07:57:20;;;;;;;41.20;7.07;;;6.70;99.90;;;;;;5028272;28;20045;-92
2021/03/21 07:59:48;;;;;;;45.85;7.18;;;6.70;99.90;;;;;;5046214;28;20037;-93
2021/03/21 08:02:22;;;;;;;39.35;5.93;;;6.70;99.90;;;;;;5027302;28;20064;-93
2021/03/21 08:04:48;;;;;;;41.90;8.27;;;7.00;99.90;;;;;;5043631;28;20115;-91
2021/03/21 08:07:30;;;;;;;40.40;6.95;;;6.90;99.90;;;;;;5042673;28;20053;-93
2021/03/21 08:09:56;;;;;;;37.20;7.68;;;7.20;99.90;;;;;;5039918;28;20045;-93
2021/03/21 08:12:22;;;;;;;51.00;9.05;;;7.00;99.90;;;;;;5025864;28;20060;-92
2021/03/21 08:14:57;;;;;;;44.95;8.13;;;7.00;99.90;;;;;;5053004;28;20036;-92
2021/03/21 08:17:28;;;;;;;46.78;6.80;;;7.10;99.90;;;;;;5011893;28;20056;-93
2021/03/21 08:20:01;;;;;;;45.55;8.18;;;7.20;99.90;;;;;;5045323;28;20044;-91
2021/03/21 08:22:30;;;;;;;41.22;7.78;;;7.10;99.90;;;;;;5046204;28;20033;-92
2021/03/21 08:25:00;;;;;;;48.25;8.13;;;7.20;99.90;;;;;;5040386;28;20048;-91
2021/03/21 08:27:29;;;;;;;55.17;9.30;;;7.20;99.90;;;;;;5026901;28;20049;-94
2021/03/21 08:30:05;;;;;;;35.13;6.35;;;7.10;99.90;;;;;;5013934;28;20048;-92
2021/03/21 08:32:34;;;;;;;47.35;8.65;;;7.10;99.90;;;;;;5022753;28;20145;-92
2021/03/21 08:35:35;;;;;;;45.90;8.45;;;6.90;99.90;;;;;;5056219;28;20070;-91
2021/03/21 08:38:18;;;;;;;45.92;7.70;;;7.10;99.90;;;;;;4982296;28;20081;-91
2021/03/21 08:40:45;;;;;;;;;;;7.00;99.90;;;;;;5015487;28;20045;-93
2021/03/21 08:43:23;;;;;;;45.78;8.25;;;7.10;99.90;;;;;;5038470;28;19921;-93
2021/03/21 08:45:55;;;;;;;42.53;6.68;;;7.10;99.90;;;;;;5076566;28;20025;-92
2021/03/21 08:48:38;;;;;;;45.88;9.90;;;7.10;99.90;;;;;;5078170;28;20044;-92
2021/03/21 08:51:04;;;;;;;47.60;7.72;;;7.00;99.90;;;;;;5050372;28;20053;-92
2021/03/21 08:53:41;;;;;;;37.20;7.65;;;7.00;99.90;;;;;;5015916;28;20366;-92
2021/03/21 08:56:15;;;;;;;43.85;6.85;;;7.00;99.90;;;;;;5066570;28;20072;-93
2021/03/21 08:58:41;;;;;;;47.30;7.10;;;7.00;99.90;;;;;;5047726;28;20387;-91
2021/03/21 09:01:25;;;;;;;46.92;9.23;;;7.20;99.90;;;;;;5033242;28;20041;-90
2021/03/21 09:04:07;;;;;;;42.25;6.57;;;7.20;99.90;;;;;;5049604;28;20195;-91
2021/03/21 09:06:40;;;;;;;46.65;7.50;;;7.10;99.90;;;;;;5053440;28;20037;-91
2021/03/21 09:09:26;;;;;;;49.83;7.15;;;7.10;99.90;;;;;;5012382;28;20047;-91
2021/03/21 09:11:57;;;;;;;40.25;8.30;;;7.10;99.90;;;;;;5022927;28;20450;-91
2021/03/21 09:14:27;;;;;;;44.22;8.98;;;7.10;99.90;;;;;;5047381;28;20041;-93
2021/03/21 09:17:06;;;;;;;53.90;8.73;;;7.10;99.90;;;;;;5043246;28;20041;-92
2021/03/21 09:19:39;;;;;;;40.88;7.75;;;7.20;99.90;;;;;;5039699;28;20202;-90
2021/03/21 09:22:27;;;;;;;41.58;7.05;;;7.20;99.90;;;;;;5045875;28;20049;-93
2021/03/21 09:25:15;;;;;;;41.10;7.32;;;7.30;99.90;;;;;;5013729;28;20044;-90
2021/03/21 09:27:44;;;;;;;42.72;6.80;;;7.10;99.90;;;;;;5042024;28;20056;-90
2021/03/21 09:30:44;;;;;;;51.15;8.07;;;7.20;99.90;;;;;;5026660;28;20048;-92
2021/03/21 09:33:15;;;;;;;48.67;8.25;;;7.30;99.90;;;;;;5029518;28;20037;-94
2021/03/21 09:36:20;;;;;;;49.33;8.48;;;7.30;99.90;;;;;;5028017;28;20044;-94
2021/03/21 09:39:04;;;;;;;52.80;8.65;;;7.30;99.90;;;;;;5029747;28;20094;-92
2021/03/21 09:41:31;;;;;;;52.38;8.00;;;7.40;99.90;;;;;;5063250;28;20041;-83
2021/03/21 09:44:02;;;;;;;52.70;9.68;;;7.40;99.90;;;;;;5047108;28;20041;-90
2021/03/21 09:46:57;;;;;;;39.67;8.30;;;7.40;99.90;;;;;;5046884;28;20044;-92
2021/03/21 09:49:50;;;;;;;44.95;7.78;;;7.50;99.90;;;;;;5039469;28;20379;-90
2021/03/21 09:52:31;;;;;;;41.45;9.00;;;7.50;99.90;;;;;;5024673;28;20052;-91
2021/03/21 09:55:09;;;;;;;37.80;6.13;;;7.50;99.90;;;;;;5068577;28;20045;-90
2021/03/21 09:57:59;;;;;;;37.45;7.70;;;7.50;99.90;;;;;;5034862;28;20051;-91
2021/03/21 10:00:29;;;;;;;51.75;9.80;;;7.50;99.90;;;;;;5053711;28;20393;-90
2021/03/21 10:03:03;;;;;;;45.20;9.13;;;7.70;99.90;;;;;;5042703;28;20446;-91
2021/03/21 10:05:53;;;;;;;46.88;7.95;;;7.60;99.90;;;;;;5043495;28;20025;-91
2021/03/21 10:08:25;;;;;;;49.42;8.57;;;7.60;99.90;;;;;;5061906;28;20032;-91
2021/03/21 10:10:57;;;;;;;45.43;9.43;;;7.50;99.90;;;;;;5013485;28;20116;-90
2021/03/21 10:13:41;;;;;;;50.25;9.38;;;7.40;99.90;;;;;;5056679;28;20544;-94
2021/03/21 10:16:19;;;;;;;41.42;7.53;;;7.50;99.90;;;;;;5057249;28;20414;-92
2021/03/21 10:18:57;;;;;;;44.83;8.57;;;7.60;99.90;;;;;;5050177;28;20044;-92
2021/03/21 10:21:22;;;;;;;49.92;8.23;;;7.40;99.90;;;;;;5030533;28;20029;-90
2021/03/21 10:23:51;;;;;;;43.05;9.32;;;7.40;99.90;;;;;;5058379;28;20049;-92
2021/03/21 10:26:23;;;;;;;47.58;8.40;;;7.50;99.90;;;;;;5027224;28;20041;-91
2021/03/21 10:28:50;;;;;;;41.72;9.35;;;7.60;99.90;;;;;;5041701;28;20037;-92
2021/03/21 10:31:22;;;;;;;42.97;7.32;;;7.80;99.90;;;;;;5012076;28;20132;-92
2021/03/21 10:34:03;;;;;;;50.63;9.85;;;7.90;99.90;;;;;;5061762;28;20094;-92
2021/03/21 10:36:41;;;;;;;43.00;10.18;;;7.90;99.90;;;;;;5039374;28;20139;-91
2021/03/21 10:39:23;;;;;;;56.05;10.93;;;7.60;99.90;;;;;;5025852;28;21322;-92
2021/03/21 10:42:05;;;;;;;62.45;8.75;;;7.70;99.90;;;;;;5045840;28;20439;-92
2021/03/21 10:44:31;;;;;;;35.25;6.75;;;7.80;99.90;;;;;;5028759;28;20064;-91
2021/03/21 10:46:58;;;;;;;47.70;9.80;;;8.10;99.90;;;;;;5052597;28;20063;-89
2021/03/21 10:49:46;;;;;;;40.22;8.43;;;7.90;99.90;;;;;;4998858;28;20045;-93
2021/03/21 10:52:32;;;;;;;42.22;7.03;;;7.70;99.90;;;;;;5044974;28;20140;-93
2021/03/21 10:55:29;;;;;;;49.75;8.20;;;7.60;99.90;;;;;;5058268;28;20048;-92
2021/03/21 10:58:16;;;;;;;46.10;7.15;;;7.80;99.90;;;;;;5019994;28;20517;-92
2021/03/21 11:00:41;;;;;;;49.55;7.68;;;7.90;99.90;;;;;;5024660;28;20044;-91
2021/03/21 11:03:15;;;;;;;37.03;8.52;;;7.80;99.90;;;;;;5028663;28;20098;-92
2021/03/21 11:05:46;;;;;;;38.95;6.90;;;7.60;99.90;;;;;;5028237;28;20037;-91
2021/03/21 11:08:12;;;;;;;50.63;8.77;;;7.60;99.90;;;;;;5027176;28;20049;-91
2021/03/21 11:10:48;;;;;;;55.88;7.95;;;7.70;99.90;;;;;;5045335;28;20090;-92
2021/03/21 11:13:30;;;;;;;46.03;7.65;;;7.50;99.90;;;;;;5027864;28;20537;-92
2021/03/21 11:15:57;;;;;;;53.20;9.38;;;7.60;99.90;;;;;;5012686;28;20148;-91
2021/03/21 11:18:29;;;;;;;45.20;7.32;;;7.60;99.90;;;;;;5029553;28;20494;-91
2021/03/21 11:21:20;;;;;;;42.28;8.35;;;7.60;99.90;;;;;;5043760;28;20107;-93
2021/03/21 11:23:49;;;;;;;43.40;8.68;;;7.50;99.90;;;;;;5026998;28;20391;-92
2021/03/21 11:26:25;;;;;;;49.90;9.73;;;7.50;99.90;;;;;;5072599;28;20055;-92
2021/03/21 11:29:23;;;;;;;49.70;8.32;;;7.60;99.90;;;;;;5071606;28;20041;-93
2021/03/21 11:31:51;;;;;;;42.60;6.65;;;7.50;99.90;;;;;;5046021;28;20422;-91
2021/03/21 11:34:27;;;;;;;46.90;7.78;;;7.40;99.90;;;;;;5027634;28;20048;-91
2021/03/21 11:37:10;;;;;;;53.03;8.55;;;7.40;99.90;;;;;;5043679;28;20401;-93
2021/03/21 11:39:42;;;;;;;47.22;8.20;;;7.50;99.90;;;;;;5043134;28;20106;-92
2021/03/21 11:42:26;;;;;;;46.47;7.80;;;7.40;99.90;;;;;;5054594;28;20077;-93
2021/03/21 11:45:12;;;;;;;42.95;7.03;;;7.30;99.90;;;;;;5043336;28;20036;-91
2021/03/21 11:47:47;;;;;;;46.22;7.07;;;7.30;99.90;;;;;;5048003;28;20395;-92
2021/03/21 11:50:40;;;;;;;48.63;9.68;;;7.40;99.90;;;;;;5045326;28;20037;-91
2021/03/21 11:53:11;;;;;;;39.83;6.88;;;7.40;99.90;;;;;;5033105;28;20467;-92
2021/03/21 11:55:40;;;;;;;37.15;7.03;;;7.60;99.90;;;;;;5029156;28;20044;-92
2021/03/21 11:58:15;;;;;;;38.38;6.80;;;8.00;99.90;;;;;;5047075;28;20064;-92
2021/03/21 12:00:48;;;;;;;45.08;7.85;;;8.60;99.90;;;;;;5027599;28;20386;-92
2021/03/21 12:03:21;;;;;;;38.83;6.68;;;8.80;99.90;;;;;;5043088;28;20045;-92
2021/03/21 12:05:59;;;;;;;34.58;6.47;;;8.90;99.90;;;;;;5008304;28;20076;-91
2021/03/21 12:08:34;;;;;;;34.78;5.35;;;8.40;99.90;;;;;;5023319;28;20059;-92
2021/03/21 12:11:18;;;;;;;40.40;7.05;;;8.40;99.90;;;;;;5031853;28;20046;-91
2021/03/21 12:13:45;;;;;;;34.70;7.05;;;8.80;99.90;;;;;;5015782;28;20040;-91
2021/03/21 12:16:35;;;;;;;34.17;6.53;;;8.70;99.90;;;;;;5006667;28;20184;-92
2021/03/21 12:19:03;;;;;;;40.65;6.60;;;8.70;99.90;;;;;;5010197;28;20056;-92
2021/03/21 12:21:33;;;;;;;50.33;8.07;;;8.40;99.90;;;;;;4998761;28;20037;-93
2021/03/21 12:24:04;;;;;;;35.72;7.53;;;8.40;99.90;;;;;;5009975;28;20225;-92
2021/03/21 12:26:32;;;;;;;34.38;6.70;;;8.20;99.90;;;;;;5043196;28;20460;-92
2021/03/21 12:29:04;;;;;;;35.03;7.18;;;8.10;99.90;;;;;;5027978;28;20037;-91
2021/03/21 12:31:39;;;;;;;45.33;6.88;;;8.10;99.90;;;;;;5044472;28;20041;-92
2021/03/21 12:34:32;;;;;;;42.47;7.47;;;8.00;99.90;;;;;;5034665;28;20040;-92
2021/03/21 12:37:13;;;;;;;35.38;8.63;;;7.80;99.90;;;;;;5044847;28;20053;-90
2021/03/21 12:39:42;;;;;;;33.60;6.85;;;7.80;99.90;;;;;;5020237;28;20048;-94
2021/03/21 12:42:26;;;;;;;36.67;8.25;;;7.80;99.90;;;;;;5012554;28;20065;-91
2021/03/21 12:45:15;;;;;;;44.85;8.68;;;7.90;99.90;;;;;;5030232;28;20041;-92
2021/03/21 12:47:44;;;;;;;46.53;8.52;;;8.00;99.90;;;;;;5066588;28;20045;-93
2021/03/21 12:50:38;;;;;;;46.78;8.23;;;7.90;99.90;;;;;;5056396;28;20356;-91
2021/03/21 12:53:07;;;;;;;47.83;7.03;;;7.70;99.90;;;;;;5037303;28;20090;-93
2021/03/21 12:55:33;;;;;;;43.10;7.00;;;7.70;99.90;;;;;;5065407;28;20034;-90
2021/03/21 12:57:59;;;;;;;50.85;9.68;;;7.70;99.90;;;;;;5038706;28;20037;-92
2021/03/21 13:00:29;;;;;;;43.70;7.68;;;7.80;99.90;;;;;;5022918;28;20072;-92
2021/03/21 13:02:57;;;;;;;39.03;6.72;;;7.70;99.90;;;;;;5052238;28;20041;-93
2021/03/21 13:05:35;;;;;;;40.13;8.00;;;7.70;99.90;;;;;;5022417;28;20075;-92
2021/03/21 13:08:01;;;;;;;43.33;8.40;;;7.90;99.90;;;;;;5021068;28;20113;-92
2021/03/21 13:10:28;;;;;;;40.42;8.75;;;7.90;99.90;;;;;;5038903;28;20037;-92
2021/03/21 13:12:55;;;;;;;45.90;7.95;;;8.20;99.90;;;;;;5052517;28;20044;-93
2021/03/21 13:15:22;;;;;;;40.17;9.00;;;7.90;99.90;;;;;;5038339;28;20045;-93
2021/03/21 13:17:48;;;;;;;47.00;8.52;;;8.00;99.90;;;;;;5030811;28;20052;-93
2021/03/21 13:20:17;;;;;;;43.00;5.95;;;8.00;99.90;;;;;;5011872;28;20064;-92
2021/03/21 13:22:43;;;;;;;33.50;7.00;;;8.00;99.90;;;;;;5022479;28;20418;-92
2021/03/21 13:25:13;;;;;;;45.40;8.05;;;8.10;99.90;;;;;;5059991;28;20073;-89
2021/03/21 13:27:39;;;;;;;36.10;6.38;;;8.30;99.90;;;;;;5042562;28;20044;-91
2021/03/21 13:30:06;;;;;;;41.70;6.97;;;9.10;99.90;;;;;;5023446;28;20041;-92
2021/03/21 13:32:32;;;;;;;33.28;6.25;;;9.50;99.90;;;;;;5036524;28;20044;-93
2021/03/21 13:34:58;;;;;;;40.28;7.00;;;9.80;99.90;;;;;;5034318;28;20048;-92
2021/03/21 13:37:23;;;;;;;49.20;6.95;;;9.50;99.90;;;;;;5053197;28;20047;-92